Time;durP1;ratioP1;P1;durP2;ratioP2;P2;SDS_P1;SDS_P2;PMS_P1;PMS_P2;Temp;Humidity;BMP_temperature;BMP_pressure;BME280_temperature;BME280_humidity;BME280_pressure;Samples;Min_cycle;Max_cycle;Signal;HPM_P1;HPM_P2
2023/08/12 00:00:30;;;;;;;4.43;3.87;;;24.00;99.90;;;;;;5031096;28;20795;-73
2023/08/12 00:02:56;;;;;;;4.87;4.37;;;24.00;99.90;;;;;;4989319;28;20251;-73
2023/08/12 00:05:22;;;;;;;4.70;4.20;;;23.90;99.90;;;;;;4999259;28;20223;-73
2023/08/12 00:07:48;;;;;;;4.90;4.27;;;23.90;99.90;;;;;;5013585;28;20215;-73
2023/08/12 00:10:14;;;;;;;4.43;4.03;;;23.90;99.90;;;;;;5000082;28;20530;-73
2023/08/12 00:12:40;;;;;;;5.00;4.60;;;23.80;99.90;;;;;;4999859;28;20476;-73
2023/08/12 00:15:08;;;;;;;4.73;4.20;;;23.70;99.90;;;;;;4999094;28;20473;-73
2023/08/12 00:17:35;;;;;;;4.93;4.43;;;23.70;99.90;;;;;;5000386;28;20481;-73
2023/08/12 00:20:05;;;;;;;5.30;4.80;;;23.70;99.90;;;;;;4998718;28;20542;-73
2023/08/12 00:22:31;;;;;;;5.40;5.00;;;23.70;99.90;;;;;;4999200;28;20443;-72
2023/08/12 00:24:57;;;;;;;4.77;4.37;;;23.70;99.90;;;;;;4998781;28;20544;-72
2023/08/12 00:27:22;;;;;;;4.27;3.97;;;23.70;99.90;;;;;;5001246;28;20456;-73
2023/08/12 00:29:48;;;;;;;4.33;4.00;;;23.70;99.90;;;;;;4998691;28;20293;-72
2023/08/12 00:32:14;;;;;;;4.97;4.50;;;23.60;99.90;;;;;;5030568;28;20220;-73
2023/08/12 00:34:40;;;;;;;4.47;4.17;;;23.60;99.90;;;;;;5015894;28;21164;-73
2023/08/12 00:37:05;;;;;;;4.70;4.30;;;23.60;99.90;;;;;;5000347;28;20322;-73
2023/08/12 00:39:31;;;;;;;4.30;3.90;;;23.60;99.90;;;;;;4998555;28;20423;-72
2023/08/12 00:41:57;;;;;;;4.50;4.10;;;23.60;99.90;;;;;;5031704;28;20231;-73
2023/08/12 00:44:22;;;;;;;5.27;4.80;;;23.50;99.90;;;;;;4997404;28;20226;-73
2023/08/12 00:46:49;;;;;;;4.17;3.77;;;23.50;99.90;;;;;;5017128;28;20231;-73
2023/08/12 00:49:15;;;;;;;4.50;4.10;;;23.50;99.90;;;;;;5015265;28;20223;-74
2023/08/12 00:51:43;;;;;;;4.90;4.40;;;23.50;99.90;;;;;;5031200;28;20481;-73
2023/08/12 00:54:13;;;;;;;4.70;4.30;;;23.50;99.90;;;;;;5034630;28;20478;-73
2023/08/12 00:56:39;;;;;;;9.53;5.13;;;23.50;99.90;;;;;;5000595;28;20478;-73
2023/08/12 00:59:06;;;;;;;4.63;4.23;;;23.50;99.90;;;;;;4990820;28;20582;-73
2023/08/12 01:01:33;;;;;;;4.97;4.47;;;23.50;99.90;;;;;;5011644;28;20238;-72
2023/08/12 01:03:59;;;;;;;5.27;4.50;;;23.50;99.90;;;;;;4998247;28;20829;-74
2023/08/12 01:06:25;;;;;;;4.67;4.20;;;23.50;99.90;;;;;;4999589;28;20469;-72
2023/08/12 01:08:51;;;;;;;5.53;4.73;;;23.40;99.90;;;;;;5001100;28;20320;-73
2023/08/12 01:11:29;;;;;;;5.43;4.93;;;23.30;99.90;;;;;;5003603;28;20482;-72
2023/08/12 01:14:14;;;;;;;4.90;4.50;;;23.30;99.90;;;;;;5003858;28;20238;-73
2023/08/12 01:16:43;;;;;;;4.83;4.43;;;23.20;99.90;;;;;;5018476;28;20566;-73
2023/08/12 01:19:14;;;;;;;4.80;4.40;;;23.30;99.90;;;;;;5034528;28;20477;-73
2023/08/12 01:21:43;;;;;;;4.63;4.30;;;23.30;99.90;;;;;;5002526;28;21065;-73
2023/08/12 01:24:09;;;;;;;4.70;4.30;;;23.30;99.90;;;;;;5004172;28;20465;-72
2023/08/12 01:26:35;;;;;;;6.20;5.50;;;23.30;99.90;;;;;;5000344;28;21330;-73
2023/08/12 01:29:02;;;;;;;5.47;4.50;;;23.30;99.90;;;;;;5035784;28;20494;-73
2023/08/12 01:31:55;;;;;;;5.10;4.67;;;23.20;99.90;;;;;;5001825;28;20285;-73
2023/08/12 01:34:33;;;;;;;5.23;4.03;;;23.10;99.90;;;;;;5015781;28;20473;-72
2023/08/12 01:37:02;;;;;;;5.43;4.30;;;23.10;99.90;;;;;;5017077;28;20557;-73
2023/08/12 01:39:29;;;;;;;5.87;4.83;;;23.20;99.90;;;;;;5020281;28;20583;-73
2023/08/12 01:41:56;;;;;;;10.60;4.47;;;23.10;99.90;;;;;;5019279;28;20565;-73
2023/08/12 01:44:22;;;;;;;6.07;4.90;;;22.90;99.90;;;;;;5020197;28;20580;-73
2023/08/12 01:46:49;;;;;;;4.73;4.33;;;22.90;99.90;;;;;;5035597;28;20473;-73
2023/08/12 01:49:14;;;;;;;5.70;4.27;;;22.80;99.90;;;;;;5020594;28;20694;-72
2023/08/12 01:51:42;;;;;;;6.63;6.03;;;22.80;99.90;;;;;;5019238;28;20502;-73
2023/08/12 01:54:08;;;;;;;6.13;5.63;;;22.70;99.90;;;;;;5003674;28;20488;-72
2023/08/12 01:56:34;;;;;;;5.60;5.10;;;22.70;99.90;;;;;;5021696;28;20225;-73
2023/08/12 01:58:59;;;;;;;6.07;5.47;;;22.80;99.90;;;;;;5035550;28;20246;-72
2023/08/12 02:01:25;;;;;;;8.30;5.47;;;22.80;99.90;;;;;;5032632;28;20996;-72
2023/08/12 02:03:52;;;;;;;10.90;6.53;;;22.70;99.90;;;;;;5017589;28;20338;-72
2023/08/12 02:06:19;;;;;;;6.97;5.93;;;22.60;99.90;;;;;;5000869;28;20556;-73
2023/08/12 02:08:45;;;;;;;5.73;5.23;;;22.70;99.90;;;;;;5002453;28;20248;-72
2023/08/12 02:11:10;;;;;;;6.60;5.33;;;22.70;99.90;;;;;;5000901;28;20539;-72
2023/08/12 02:13:36;;;;;;;6.23;5.63;;;22.70;99.90;;;;;;5002644;28;20300;-73
2023/08/12 02:16:02;;;;;;;5.40;4.93;;;22.70;99.90;;;;;;5000625;28;20259;-72
2023/08/12 02:18:27;;;;;;;7.67;6.17;;;22.70;99.90;;;;;;5019572;28;20305;-72
2023/08/12 02:20:53;;;;;;;6.77;6.17;;;22.50;99.90;;;;;;5019652;28;20671;-73
2023/08/12 02:23:19;;;;;;;9.40;8.63;;;22.40;99.90;;;;;;5002024;28;20248;-73
2023/08/12 02:25:44;;;;;;;7.03;6.37;;;22.20;99.90;;;;;;5018989;28;20887;-72
2023/08/12 02:28:10;;;;;;;6.90;6.27;;;22.20;99.90;;;;;;5004151;28;20227;-72
2023/08/12 02:30:36;;;;;;;7.03;6.33;;;22.30;99.90;;;;;;5032643;28;20227;-72
2023/08/12 02:33:02;;;;;;;7.90;7.10;;;22.50;99.90;;;;;;5003166;28;20481;-72
2023/08/12 02:35:27;;;;;;;6.37;5.87;;;22.40;99.90;;;;;;5019566;28;20807;-73
2023/08/12 02:37:53;;;;;;;6.70;6.10;;;22.40;99.90;;;;;;5019332;28;20378;-72
2023/08/12 02:40:19;;;;;;;8.70;5.63;;;22.40;99.90;;;;;;4983949;28;20219;-73
2023/08/12 02:42:44;;;;;;;6.53;5.50;;;22.40;99.90;;;;;;4998702;28;20223;-72
2023/08/12 02:45:10;;;;;;;5.57;4.93;;;22.50;99.90;;;;;;5000021;28;20228;-72
2023/08/12 02:47:35;;;;;;;7.00;5.33;;;22.50;99.90;;;;;;5016084;28;20235;-72
2023/08/12 02:50:02;;;;;;;5.73;5.23;;;22.60;99.90;;;;;;5031989;28;20238;-73
2023/08/12 02:52:28;;;;;;;6.33;5.80;;;22.60;99.90;;;;;;5015338;28;20815;-72
2023/08/12 02:54:56;;;;;;;5.90;5.40;;;22.50;99.90;;;;;;4998030;28;20510;-72
2023/08/12 02:57:21;;;;;;;5.10;4.60;;;22.60;99.90;;;;;;5006442;28;20341;-72
2023/08/12 02:59:47;;;;;;;5.97;5.47;;;22.60;99.90;;;;;;5017237;28;20524;-71
2023/08/12 03:02:13;;;;;;;6.17;5.47;;;22.70;99.90;;;;;;5013406;28;20249;-72
2023/08/12 03:04:38;;;;;;;5.13;4.63;;;22.60;99.90;;;;;;5020066;28;20232;-71
2023/08/12 03:07:04;;;;;;;5.70;5.13;;;22.60;99.90;;;;;;5017609;28;20806;-71
2023/08/12 03:09:30;;;;;;;5.87;5.37;;;22.70;99.90;;;;;;5017044;28;20223;-72
2023/08/12 03:11:56;;;;;;;6.17;5.57;;;22.60;99.90;;;;;;5014623;28;20232;-72
2023/08/12 03:14:23;;;;;;;5.30;4.90;;;22.70;99.90;;;;;;5017689;28;20236;-72
2023/08/12 03:16:48;;;;;;;5.10;4.60;;;22.70;99.90;;;;;;5017298;28;20470;-72
2023/08/12 03:19:14;;;;;;;5.90;5.30;;;22.80;99.90;;;;;;5018312;28;20223;-72
2023/08/12 03:21:40;;;;;;;6.53;5.93;;;22.80;99.90;;;;;;5018001;28;20394;-72
2023/08/12 03:24:06;;;;;;;6.13;5.53;;;22.70;99.90;;;;;;5020459;28;20468;-72
2023/08/12 03:26:32;;;;;;;6.53;5.93;;;22.50;99.90;;;;;;5015830;28;20628;-72
2023/08/12 03:28:58;;;;;;;5.83;5.00;;;22.20;99.90;;;;;;5017217;28;20211;-72
2023/08/12 03:31:24;;;;;;;5.53;5.03;;;22.30;99.90;;;;;;5013992;28;20298;-72
2023/08/12 03:33:51;;;;;;;5.63;5.00;;;22.40;99.90;;;;;;5019740;28;20237;-72
2023/08/12 03:36:17;;;;;;;5.93;5.33;;;22.50;99.90;;;;;;5036875;28;20901;-72
2023/08/12 03:38:43;;;;;;;5.20;4.70;;;22.50;99.90;;;;;;5017470;28;20258;-72
2023/08/12 03:41:13;;;;;;;6.57;5.90;;;22.60;99.90;;;;;;5018730;28;20222;-73
2023/08/12 03:43:39;;;;;;;8.37;5.27;;;22.60;99.90;;;;;;5017721;28;21132;-72
2023/08/12 03:46:05;;;;;;;5.40;4.80;;;22.70;99.90;;;;;;5020692;28;20465;-72
2023/08/12 03:48:31;;;;;;;5.17;4.67;;;22.60;99.90;;;;;;5004846;28;20492;-72
2023/08/12 03:50:58;;;;;;;5.20;4.77;;;22.50;99.90;;;;;;4996308;28;20467;-73
2023/08/12 03:53:24;;;;;;;6.30;4.80;;;22.50;99.90;;;;;;4993837;28;20473;-73
2023/08/12 03:55:50;;;;;;;7.83;5.67;;;22.60;99.90;;;;;;5023259;28;20240;-72
2023/08/12 03:58:17;;;;;;;5.57;4.80;;;22.60;99.90;;;;;;5019686;28;20500;-72
2023/08/12 04:00:43;;;;;;;12.37;6.53;;;22.50;99.90;;;;;;5035596;28;20466;-72
2023/08/12 04:03:10;;;;;;;5.83;5.30;;;22.40;99.90;;;;;;5018500;28;21086;-72
2023/08/12 04:05:35;;;;;;;5.20;4.67;;;22.40;99.90;;;;;;5018801;28;20585;-72
2023/08/12 04:08:02;;;;;;;7.00;6.00;;;22.40;99.90;;;;;;4996137;28;20261;-72
2023/08/12 04:10:29;;;;;;;8.60;5.80;;;22.40;99.90;;;;;;5015101;28;20468;-73
2023/08/12 04:12:55;;;;;;;5.63;4.90;;;22.50;99.90;;;;;;4983635;28;20477;-72
2023/08/12 04:15:21;;;;;;;12.53;5.80;;;22.50;99.90;;;;;;5016704;28;20465;-72
2023/08/12 04:17:46;;;;;;;4.97;4.57;;;22.50;99.90;;;;;;4999879;28;20212;-71
2023/08/12 04:20:12;;;;;;;4.70;4.30;;;22.60;99.90;;;;;;5015810;28;20215;-72
2023/08/12 04:22:38;;;;;;;5.20;4.70;;;22.60;99.90;;;;;;5003600;28;20802;-72
2023/08/12 04:25:04;;;;;;;5.33;4.83;;;22.60;99.90;;;;;;5017302;28;20227;-72
2023/08/12 04:27:29;;;;;;;7.40;5.27;;;22.60;99.90;;;;;;5034334;28;20247;-72
2023/08/12 04:29:56;;;;;;;4.47;4.10;;;22.60;99.90;;;;;;5000297;28;20461;-72
2023/08/12 04:32:21;;;;;;;4.70;4.30;;;22.60;99.90;;;;;;5002893;28;20538;-72
2023/08/12 04:34:47;;;;;;;5.17;4.40;;;22.60;99.90;;;;;;5001627;28;20220;-72
2023/08/12 04:37:14;;;;;;;5.80;5.30;;;22.60;99.90;;;;;;5019085;28;20378;-72
2023/08/12 04:39:42;;;;;;;6.27;5.60;;;22.60;99.90;;;;;;5002954;28;20473;-72
2023/08/12 04:42:10;;;;;;;5.30;4.83;;;22.60;99.90;;;;;;5003153;28;20481;-72
2023/08/12 04:44:36;;;;;;;5.17;4.77;;;22.50;99.90;;;;;;5006717;28;20964;-72
2023/08/12 04:47:02;;;;;;;5.20;4.80;;;22.40;99.90;;;;;;5041829;28;20523;-72
2023/08/12 04:49:29;;;;;;;7.00;6.00;;;22.40;99.90;;;;;;5004687;28;20265;-72
2023/08/12 04:51:54;;;;;;;5.07;4.60;;;22.30;99.90;;;;;;5037869;28;21038;-72
2023/08/12 04:54:20;;;;;;;7.20;4.93;;;22.40;99.90;;;;;;4994865;28;20232;-72
2023/08/12 04:56:47;;;;;;;5.00;4.70;;;22.40;99.90;;;;;;5039347;28;20478;-72
2023/08/12 04:59:13;;;;;;;5.30;4.80;;;22.50;99.90;;;;;;5037110;28;20469;-72
2023/08/12 05:01:39;;;;;;;5.77;4.70;;;22.50;99.90;;;;;;5020345;28;20221;-72
2023/08/12 05:04:05;;;;;;;7.70;5.00;;;22.50;99.90;;;;;;5020234;28;20681;-72
2023/08/12 05:06:30;;;;;;;5.93;5.33;;;22.50;99.90;;;;;;5022077;28;20382;-72
2023/08/12 05:08:56;;;;;;;5.60;4.83;;;22.50;99.90;;;;;;5020750;28;20307;-72
2023/08/12 05:11:22;;;;;;;5.70;4.90;;;22.50;99.90;;;;;;5024802;28;21105;-72
2023/08/12 05:13:48;;;;;;;6.10;5.23;;;22.40;99.90;;;;;;5039984;28;20231;-72
2023/08/12 05:16:14;;;;;;;6.53;5.77;;;22.30;99.90;;;;;;5021123;28;20226;-72
2023/08/12 05:18:39;;;;;;;5.83;5.33;;;22.30;99.90;;;;;;5009676;28;20475;-74
2023/08/12 05:21:06;;;;;;;5.73;5.00;;;22.20;99.90;;;;;;5036088;28;20235;-72
2023/08/12 05:23:32;;;;;;;5.50;5.00;;;22.20;99.90;;;;;;5037349;28;20453;-72
2023/08/12 05:25:57;;;;;;;6.20;5.57;;;22.30;99.90;;;;;;5018507;28;20407;-72
2023/08/12 05:28:23;;;;;;;6.40;5.80;;;22.30;99.90;;;;;;5019001;28;20231;-72
2023/08/12 05:30:49;;;;;;;6.40;5.80;;;22.30;99.90;;;;;;5032730;28;20212;-72
2023/08/12 05:33:15;;;;;;;6.20;5.70;;;22.30;99.90;;;;;;4999339;28;21387;-72
2023/08/12 05:35:40;;;;;;;6.63;5.40;;;22.30;99.90;;;;;;4999522;28;20232;-73
2023/08/12 05:38:06;;;;;;;5.57;5.07;;;22.30;99.90;;;;;;5015306;28;20215;-72
2023/08/12 05:40:32;;;;;;;6.73;5.40;;;22.40;99.90;;;;;;5014947;28;20942;-72
2023/08/12 05:42:57;;;;;;;5.80;5.30;;;22.50;99.90;;;;;;5026455;28;20385;-72
2023/08/12 05:45:23;;;;;;;5.70;4.90;;;22.50;99.90;;;;;;4995986;28;20232;-72
2023/08/12 05:47:48;;;;;;;6.10;5.43;;;22.50;99.90;;;;;;4997974;28;20220;-72
2023/08/12 05:50:14;;;;;;;6.00;5.47;;;22.40;99.90;;;;;;5032977;28;20224;-72
2023/08/12 05:52:40;;;;;;;11.83;5.37;;;22.20;99.90;;;;;;4997429;28;20262;-71
2023/08/12 05:55:06;;;;;;;5.70;5.20;;;22.20;99.90;;;;;;4999675;28;20232;-72
2023/08/12 05:57:31;;;;;;;7.27;5.50;;;22.30;99.90;;;;;;5000814;28;20227;-73
2023/08/12 05:59:57;;;;;;;5.70;5.20;;;22.30;99.90;;;;;;5033317;28;20527;-73
2023/08/12 06:02:23;;;;;;;5.23;4.73;;;22.20;99.90;;;;;;4998822;28;20338;-73
2023/08/12 06:04:49;;;;;;;7.07;5.63;;;22.30;99.90;;;;;;5002246;28;20804;-73
2023/08/12 06:07:14;;;;;;;8.60;5.33;;;22.40;99.90;;;;;;5001534;28;20462;-73
2023/08/12 06:09:40;;;;;;;5.63;5.10;;;22.50;99.90;;;;;;5015007;28;20668;-73
2023/08/12 06:12:06;;;;;;;5.60;5.07;;;22.50;99.90;;;;;;5029481;28;20288;-73
2023/08/12 06:14:32;;;;;;;5.10;4.60;;;22.60;99.90;;;;;;5001884;28;20290;-72
2023/08/12 06:16:57;;;;;;;5.57;4.97;;;22.70;99.90;;;;;;4996053;28;21072;-73
2023/08/12 06:19:23;;;;;;;6.37;5.33;;;22.60;99.90;;;;;;5000347;28;20658;-72
2023/08/12 06:21:49;;;;;;;7.30;5.30;;;22.70;99.90;;;;;;5015456;28;20232;-73
2023/08/12 06:24:14;;;;;;;5.77;4.73;;;22.70;99.90;;;;;;5005160;28;20240;-72
2023/08/12 06:26:40;;;;;;;8.23;5.80;;;22.70;99.90;;;;;;5029354;28;20235;-72
2023/08/12 06:29:05;;;;;;;5.43;4.90;;;22.70;99.90;;;;;;5020304;28;20257;-73
2023/08/12 06:31:31;;;;;;;6.77;5.80;;;22.70;99.90;;;;;;4997968;28;20232;-72
2023/08/12 06:33:57;;;;;;;5.57;5.07;;;22.80;99.90;;;;;;5015200;28;20234;-72
2023/08/12 06:36:23;;;;;;;6.30;5.37;;;22.80;99.90;;;;;;5018715;28;20747;-74
2023/08/12 06:38:48;;;;;;;5.13;4.40;;;22.90;99.90;;;;;;4999396;28;20224;-73
2023/08/12 06:41:14;;;;;;;5.27;4.77;;;22.90;99.90;;;;;;5010738;28;20459;-73
2023/08/12 06:43:39;;;;;;;5.10;4.70;;;23.00;99.90;;;;;;5009664;28;20695;-74
2023/08/12 06:46:05;;;;;;;5.50;4.87;;;23.00;99.90;;;;;;4992346;28;20223;-73
2023/08/12 06:48:31;;;;;;;5.17;4.63;;;23.00;99.90;;;;;;4995268;28;20270;-73
2023/08/12 06:50:57;;;;;;;6.23;5.57;;;23.00;99.90;;;;;;5013642;28;20230;-73
2023/08/12 06:53:25;;;;;;;5.80;5.10;;;23.10;99.90;;;;;;4995522;28;20242;-72
2023/08/12 06:55:50;;;;;;;5.97;5.37;;;23.10;99.90;;;;;;5012536;28;20543;-73
2023/08/12 06:58:16;;;;;;;4.97;4.50;;;23.10;99.90;;;;;;4989101;28;20568;-73
2023/08/12 07:00:42;;;;;;;6.43;5.70;;;23.20;99.90;;;;;;5010987;28;20230;-72
2023/08/12 07:03:08;;;;;;;6.07;5.10;;;23.20;99.90;;;;;;4999265;28;20733;-72
2023/08/12 07:05:33;;;;;;;5.33;4.83;;;23.20;99.90;;;;;;5001993;28;20670;-73
2023/08/12 07:07:59;;;;;;;5.83;5.33;;;23.20;99.90;;;;;;5002463;28;20289;-73
2023/08/12 07:10:25;;;;;;;5.33;4.83;;;23.30;99.90;;;;;;5020965;28;20256;-73
2023/08/12 07:12:50;;;;;;;5.63;4.57;;;23.30;99.90;;;;;;5005519;28;20314;-73
2023/08/12 07:15:16;;;;;;;5.37;4.90;;;23.40;99.90;;;;;;5003473;28;20238;-73
2023/08/12 07:17:42;;;;;;;5.63;5.10;;;23.30;99.90;;;;;;5006385;28;20220;-73
2023/08/12 07:20:08;;;;;;;5.23;4.83;;;23.40;99.90;;;;;;5021032;28;20662;-73
2023/08/12 07:22:33;;;;;;;5.33;4.63;;;23.50;99.90;;;;;;5002113;28;20228;-73
2023/08/12 07:25:02;;;;;;;5.00;4.60;;;23.50;99.90;;;;;;5018034;28;20529;-73
2023/08/12 07:27:28;;;;;;;5.43;4.63;;;23.50;99.90;;;;;;5023222;28;20320;-73
2023/08/12 07:29:53;;;;;;;5.10;4.70;;;23.50;99.90;;;;;;5018773;28;20523;-73
2023/08/12 07:32:19;;;;;;;5.83;5.40;;;23.50;99.90;;;;;;5003485;28;21030;-73
2023/08/12 07:34:45;;;;;;;4.43;4.03;;;23.50;99.90;;;;;;5020754;28;20227;-73
2023/08/12 07:37:11;;;;;;;5.40;4.90;;;23.60;99.90;;;;;;5021504;28;20226;-73
2023/08/12 07:39:37;;;;;;;5.57;5.00;;;23.70;99.90;;;;;;5001452;28;20716;-73
2023/08/12 07:42:03;;;;;;;5.90;4.93;;;23.70;99.90;;;;;;5017780;28;20305;-73
2023/08/12 07:44:29;;;;;;;6.17;5.57;;;23.70;99.90;;;;;;5020059;28;20804;-73
2023/08/12 07:46:57;;;;;;;6.67;5.00;;;23.80;99.90;;;;;;4999831;28;20496;-73
2023/08/12 07:49:23;;;;;;;5.40;5.00;;;23.70;99.90;;;;;;5030476;28;20243;-73
2023/08/12 07:51:48;;;;;;;4.50;4.20;;;23.80;99.90;;;;;;5039042;28;20480;-73
2023/08/12 07:54:14;;;;;;;5.63;5.13;;;23.90;99.90;;;;;;5004602;28;20231;-74
2023/08/12 07:56:40;;;;;;;4.77;4.37;;;23.90;99.90;;;;;;5003347;28;20238;-74
2023/08/12 07:59:05;;;;;;;6.03;5.53;;;24.00;99.90;;;;;;5002640;28;20223;-74
2023/08/12 08:01:31;;;;;;;7.00;5.00;;;24.00;99.90;;;;;;5020054;28;20234;-73
2023/08/12 08:03:57;;;;;;;6.03;5.13;;;24.00;99.90;;;;;;5021054;28;20256;-73
2023/08/12 08:06:26;;;;;;;5.50;5.00;;;24.00;99.90;;;;;;5020328;28;20891;-73
2023/08/12 08:08:51;;;;;;;6.43;5.80;;;24.10;99.90;;;;;;5036092;28;20253;-74
2023/08/12 08:11:17;;;;;;;5.60;5.10;;;24.20;99.90;;;;;;4998882;28;20463;-73
2023/08/12 08:13:46;;;;;;;5.70;5.20;;;24.30;99.90;;;;;;5018128;28;20239;-73
2023/08/12 08:16:11;;;;;;;6.47;4.87;;;24.30;99.90;;;;;;5032746;28;20236;-73
2023/08/12 08:18:37;;;;;;;8.50;5.87;;;24.30;99.90;;;;;;5035287;28;20503;-74
2023/08/12 08:21:03;;;;;;;7.23;5.77;;;24.40;99.90;;;;;;5013406;28;20219;-73
2023/08/12 08:23:28;;;;;;;5.90;5.30;;;24.50;99.90;;;;;;4997412;28;20771;-73
2023/08/12 08:25:54;;;;;;;5.80;5.23;;;24.50;99.90;;;;;;5016985;28;20708;-73
2023/08/12 08:28:19;;;;;;;6.07;5.47;;;24.50;99.90;;;;;;5002713;28;20362;-74
2023/08/12 08:30:45;;;;;;;7.77;5.20;;;24.50;99.90;;;;;;5015730;28;20273;-72
2023/08/12 08:33:11;;;;;;;5.47;5.07;;;24.60;99.90;;;;;;5032238;28;20250;-73
2023/08/12 08:35:36;;;;;;;6.20;5.20;;;24.60;99.90;;;;;;4986185;28;20228;-72
2023/08/12 08:38:02;;;;;;;4.50;4.20;;;24.60;99.90;;;;;;5002554;28;20212;-73
2023/08/12 08:40:28;;;;;;;5.33;4.93;;;24.70;99.90;;;;;;5001196;28;20714;-72
2023/08/12 08:42:54;;;;;;;5.17;4.67;;;24.70;99.90;;;;;;4984625;28;20235;-72
2023/08/12 08:45:21;;;;;;;4.80;4.40;;;24.80;99.90;;;;;;4999692;28;20219;-73
2023/08/12 08:47:48;;;;;;;4.67;4.27;;;24.80;99.90;;;;;;5017156;28;20282;-73
2023/08/12 08:50:15;;;;;;;5.40;4.50;;;24.80;99.90;;;;;;4999169;28;20473;-72
2023/08/12 08:52:43;;;;;;;4.70;4.30;;;24.80;99.90;;;;;;5017206;28;21133;-73
2023/08/12 08:55:09;;;;;;;5.80;4.90;;;24.80;99.90;;;;;;5000337;28;20708;-73
2023/08/12 08:57:37;;;;;;;5.33;4.93;;;24.80;99.90;;;;;;5016876;28;20951;-73
2023/08/12 09:00:07;;;;;;;5.87;5.47;;;24.90;99.90;;;;;;4998536;28;20470;-74
2023/08/12 09:02:33;;;;;;;4.70;4.30;;;24.90;99.90;;;;;;5019891;28;20475;-73
2023/08/12 09:04:59;;;;;;;6.20;5.27;;;24.90;99.90;;;;;;5015478;28;20475;-73
2023/08/12 09:07:26;;;;;;;5.67;4.20;;;24.90;99.90;;;;;;5034332;28;20224;-73
2023/08/12 09:09:54;;;;;;;4.50;4.10;;;24.90;99.90;;;;;;4999723;28;20470;-73
2023/08/12 09:12:21;;;;;;;4.37;4.00;;;25.00;99.90;;;;;;5015190;28;20575;-73
2023/08/12 09:14:46;;;;;;;7.03;4.20;;;25.00;99.90;;;;;;5018848;28;21026;-73
2023/08/12 09:17:12;;;;;;;4.50;4.10;;;25.00;99.90;;;;;;5017246;28;20495;-73
2023/08/12 09:19:38;;;;;;;4.50;4.10;;;25.00;99.90;;;;;;5017062;28;20223;-73
2023/08/12 09:22:05;;;;;;;4.60;4.20;;;25.00;99.90;;;;;;5016615;28;20887;-72
2023/08/12 09:24:30;;;;;;;4.73;4.33;;;25.10;99.90;;;;;;5016033;28;20298;-73
2023/08/12 09:26:56;;;;;;;4.60;4.20;;;25.20;99.90;;;;;;5001437;28;20451;-72
2023/08/12 09:29:24;;;;;;;5.27;4.77;;;25.30;99.90;;;;;;5000676;28;20220;-72
2023/08/12 09:31:50;;;;;;;4.87;4.37;;;25.40;99.90;;;;;;5021351;28;20301;-72
2023/08/12 09:34:18;;;;;;;5.20;4.77;;;25.40;99.90;;;;;;5016516;28;20469;-72
2023/08/12 09:36:44;;;;;;;3.67;3.43;;;25.40;99.90;;;;;;5004253;28;20474;-73
2023/08/12 09:39:09;;;;;;;4.67;4.07;;;25.30;99.90;;;;;;5019628;28;20651;-72
2023/08/12 09:41:35;;;;;;;4.30;3.90;;;25.20;99.90;;;;;;5018545;28;20477;-71
2023/08/12 09:44:04;;;;;;;3.50;3.30;;;25.10;99.90;;;;;;5000810;28;20229;-73
2023/08/12 09:46:33;;;;;;;4.00;3.67;;;25.10;99.90;;;;;;5003427;28;20834;-73
2023/08/12 09:48:59;;;;;;;4.03;3.60;;;24.80;99.90;;;;;;5033552;28;20902;-72
2023/08/12 09:51:25;;;;;;;4.30;3.90;;;24.80;99.90;;;;;;5036374;28;20501;-72
2023/08/12 09:53:52;;;;;;;5.07;4.07;;;24.80;99.90;;;;;;5037571;28;20234;-73
2023/08/12 09:56:19;;;;;;;4.00;3.70;;;24.60;99.90;;;;;;5036502;28;20441;-73
2023/08/12 09:58:48;;;;;;;4.60;4.20;;;24.30;99.90;;;;;;5020663;28;20463;-73
2023/08/12 10:01:18;;;;;;;5.87;5.00;;;24.10;99.90;;;;;;4999033;28;20458;-74
2023/08/12 10:03:48;;;;;;;8.07;4.60;;;24.20;99.90;;;;;;5031464;28;20481;-73
2023/08/12 10:06:14;;;;;;;5.10;4.60;;;24.10;99.90;;;;;;5018505;28;20477;-74
2023/08/12 10:08:40;;;;;;;4.23;3.93;;;23.90;99.90;;;;;;5016829;28;21058;-73
2023/08/12 10:11:07;;;;;;;4.50;4.10;;;23.70;99.90;;;;;;5015698;28;20475;-71
2023/08/12 10:13:34;;;;;;;3.90;3.60;;;23.70;99.90;;;;;;4997407;28;20469;-75
2023/08/12 10:16:00;;;;;;;4.07;3.77;;;23.60;99.90;;;;;;4997858;28;20994;-73
2023/08/12 10:18:30;;;;;;;4.57;3.23;;;23.50;99.90;;;;;;5014026;28;20488;-73
2023/08/12 10:20:59;;;;;;;5.00;3.57;;;23.70;99.90;;;;;;5014288;28;20473;-73
2023/08/12 10:23:25;;;;;;;3.80;3.50;;;23.70;99.90;;;;;;5032679;28;20622;-73
2023/08/12 10:25:54;;;;;;;3.30;3.10;;;23.70;99.90;;;;;;5015344;28;20472;-72
2023/08/12 10:28:20;;;;;;;5.27;3.30;;;23.90;99.90;;;;;;5000906;28;20474;-73
2023/08/12 10:30:46;;;;;;;4.00;3.70;;;23.90;99.90;;;;;;5032053;28;20462;-72
2023/08/12 10:33:18;;;;;;;4.53;3.43;;;23.90;99.90;;;;;;5000745;28;20911;-72
2023/08/12 10:35:48;;;;;;;6.60;3.73;;;23.90;99.90;;;;;;4986618;28;20219;-73
2023/08/12 10:38:17;;;;;;;5.43;4.07;;;24.00;99.90;;;;;;5018552;28;20474;-73
2023/08/12 10:40:43;;;;;;;3.70;3.40;;;24.10;99.90;;;;;;5000860;28;20505;-73
2023/08/12 10:43:11;;;;;;;4.30;3.70;;;24.00;99.90;;;;;;5032066;28;20466;-73
2023/08/12 10:45:53;;;;;;;4.50;3.63;;;23.80;99.90;;;;;;5015943;28;20470;-74
2023/08/12 10:48:24;;;;;;;6.10;3.93;;;23.90;99.90;;;;;;5018569;28;20536;-73
2023/08/12 10:50:59;;;;;;;5.80;3.20;;;23.90;99.90;;;;;;5032613;28;20462;-73
2023/08/12 10:53:31;;;;;;;3.93;3.03;;;24.00;99.90;;;;;;4999027;28;20480;-73
2023/08/12 10:56:00;;;;;;;4.73;3.60;;;24.10;99.90;;;;;;5033806;28;20578;-73
2023/08/12 10:58:40;;;;;;;3.83;3.40;;;24.00;99.90;;;;;;5014506;28;20464;-73
2023/08/12 11:01:13;;;;;;;2.80;2.60;;;24.20;99.90;;;;;;5000821;28;21124;-73
2023/08/12 11:03:43;;;;;;;3.10;2.90;;;24.30;99.90;;;;;;5016324;28;20473;-73
2023/08/12 11:06:10;;;;;;;3.40;3.20;;;24.40;99.90;;;;;;5001823;28;20845;-73
2023/08/12 11:08:36;;;;;;;4.93;3.33;;;24.50;99.90;;;;;;5002375;28;20478;-73
2023/08/12 11:11:02;;;;;;;3.13;2.90;;;24.50;99.90;;;;;;5034718;28;20495;-72
2023/08/12 11:13:28;;;;;;;3.13;2.93;;;24.60;99.90;;;;;;4997938;28;20714;-73
2023/08/12 11:16:07;;;;;;;5.17;3.70;;;24.80;99.90;;;;;;5018269;28;20490;-72
2023/08/12 11:18:34;;;;;;;3.10;2.90;;;24.90;99.90;;;;;;5034993;28;20215;-72
2023/08/12 11:21:01;;;;;;;4.10;3.63;;;25.10;99.90;;;;;;5015154;28;20588;-73
2023/08/12 11:23:28;;;;;;;3.60;3.30;;;25.30;99.90;;;;;;4998350;28;20474;-72
2023/08/12 11:25:54;;;;;;;3.30;2.90;;;25.40;99.90;;;;;;5033228;28;20508;-72
2023/08/12 11:28:22;;;;;;;3.50;3.20;;;25.40;99.90;;;;;;5015937;28;21128;-72
2023/08/12 11:30:48;;;;;;;3.53;3.23;;;25.60;99.90;;;;;;5028893;28;20216;-73
2023/08/12 11:33:18;;;;;;;8.13;3.10;;;25.60;99.90;;;;;;5014842;28;20504;-72
2023/08/12 11:35:44;;;;;;;3.10;2.90;;;25.70;99.90;;;;;;5016072;28;20659;-72
2023/08/12 11:38:10;;;;;;;4.03;2.90;;;25.80;99.90;;;;;;4997959;28;20462;-73
2023/08/12 11:40:35;;;;;;;3.10;2.80;;;25.80;99.90;;;;;;4998500;28;20586;-73
2023/08/12 11:43:03;;;;;;;3.73;3.47;;;25.90;99.90;;;;;;4996896;28;20252;-73
2023/08/12 11:45:28;;;;;;;4.13;3.53;;;25.90;99.90;;;;;;5017471;28;20323;-73
2023/08/12 11:47:54;;;;;;;4.03;3.00;;;25.90;99.90;;;;;;5000699;28;20475;-73
2023/08/12 11:50:21;;;;;;;3.43;3.13;;;26.00;99.90;;;;;;5016093;28;20347;-72
2023/08/12 11:52:48;;;;;;;3.90;3.03;;;26.10;99.90;;;;;;5011094;28;20215;-73
2023/08/12 11:55:14;;;;;;;3.80;3.40;;;26.20;99.90;;;;;;5015035;28;20498;-73
2023/08/12 11:57:41;;;;;;;3.53;3.20;;;26.30;99.90;;;;;;5016538;28;20560;-72
2023/08/12 12:00:13;;;;;;;4.10;3.53;;;26.30;99.90;;;;;;5031841;28;20227;-73
2023/08/12 12:02:41;;;;;;;3.77;3.50;;;26.20;99.90;;;;;;5015516;28;20501;-73
2023/08/12 12:05:13;;;;;;;3.50;3.10;;;26.30;99.90;;;;;;5015480;28;20554;-72
2023/08/12 12:07:39;;;;;;;3.70;3.10;;;26.30;99.90;;;;;;4998170;28;20755;-72
2023/08/12 12:10:06;;;;;;;5.07;3.77;;;26.30;99.90;;;;;;4998443;28;20333;-72
2023/08/12 12:12:35;;;;;;;2.80;2.60;;;26.40;99.90;;;;;;4998826;28;20247;-74
2023/08/12 12:15:02;;;;;;;3.07;2.83;;;26.30;99.90;;;;;;5000434;28;20485;-72
2023/08/12 12:17:27;;;;;;;3.90;3.50;;;26.40;99.90;;;;;;5001357;28;20458;-72
2023/08/12 12:20:00;;;;;;;2.77;2.57;;;26.50;99.90;;;;;;5015665;28;20545;-72
2023/08/12 12:22:30;;;;;;;2.90;2.50;;;26.50;99.90;;;;;;5008934;28;20219;-72
2023/08/12 12:25:00;;;;;;;2.97;2.77;;;26.40;99.90;;;;;;5019103;28;20811;-72
2023/08/12 12:27:26;;;;;;;3.20;2.80;;;26.40;99.90;;;;;;4998934;28;20472;-72
2023/08/12 12:29:53;;;;;;;3.73;3.43;;;26.30;99.90;;;;;;5012872;28;20474;-73
2023/08/12 12:32:20;;;;;;;4.20;3.90;;;26.30;99.90;;;;;;4992646;28;20458;-73
2023/08/12 12:34:46;;;;;;;3.37;3.07;;;26.20;99.90;;;;;;5027592;28;20243;-73
2023/08/12 12:37:13;;;;;;;5.00;3.13;;;26.20;99.90;;;;;;5015649;28;20218;-72
2023/08/12 12:39:39;;;;;;;3.80;3.47;;;26.20;99.90;;;;;;5015611;28;20476;-72
2023/08/12 12:42:05;;;;;;;3.27;3.00;;;26.30;99.90;;;;;;4996691;28;20847;-73